createdAt,value
2024-05-09T00:02:02.133Z,12.52
2024-05-09T00:04:34.963Z,12.47
2024-05-09T00:07:07.586Z,12.43
2024-05-09T00:09:40.346Z,12.39
2024-05-09T00:12:13.098Z,12.35
2024-05-09T00:14:46.431Z,12.32
2024-05-09T00:17:19.137Z,12.28
2024-05-09T00:19:51.881Z,12.24
2024-05-09T00:22:24.644Z,12.19
2024-05-09T00:24:57.296Z,12.13
2024-05-09T00:27:29.871Z,12.09
2024-05-09T00:30:04.122Z,12.05
2024-05-09T00:32:37.057Z,11.99
2024-05-09T00:35:10.439Z,11.95
2024-05-09T00:37:43.114Z,11.89
2024-05-09T00:40:22.938Z,11.84
2024-05-09T00:43:03.582Z,11.80
2024-05-09T00:45:36.478Z,11.74
2024-05-09T00:48:11.571Z,11.69
2024-05-09T00:50:47.456Z,11.63
2024-05-09T00:53:21.541Z,11.58
2024-05-09T00:55:54.605Z,11.53
2024-05-09T00:58:27.970Z,11.48
2024-05-09T01:01:01.962Z,11.44
2024-05-09T01:03:34.697Z,11.42
2024-05-09T01:06:07.776Z,11.41
2024-05-09T01:08:40.539Z,11.40
2024-05-09T01:11:13.238Z,11.37
2024-05-09T01:13:46.453Z,11.36
2024-05-09T01:16:19.243Z,11.35
2024-05-09T01:18:52.371Z,11.35
2024-05-09T01:21:25.108Z,11.35
2024-05-09T01:23:57.899Z,11.34
2024-05-09T01:26:31.173Z,11.33
2024-05-09T01:29:03.835Z,11.34
2024-05-09T01:31:36.642Z,11.34
2024-05-09T01:34:09.320Z,11.35
2024-05-09T01:36:42.066Z,11.36
2024-05-09T01:39:15.037Z,11.36
2024-05-09T01:41:47.598Z,11.36
2024-05-09T01:44:20.693Z,11.36
2024-05-09T01:46:53.514Z,11.35
2024-05-09T01:49:26.437Z,11.34
2024-05-09T01:51:59.267Z,11.33
2024-05-09T01:54:31.807Z,11.31
2024-05-09T01:57:04.307Z,11.30
2024-05-09T01:59:36.777Z,11.31
2024-05-09T02:02:09.576Z,11.32
2024-05-09T02:04:42.533Z,11.34
2024-05-09T02:07:15.230Z,11.35
2024-05-09T02:09:47.853Z,11.37
2024-05-09T02:12:20.630Z,11.42
2024-05-09T02:14:54.421Z,11.48
2024-05-09T02:17:27.404Z,11.53
2024-05-09T02:20:00.390Z,11.58
2024-05-09T02:22:33.018Z,11.59
2024-05-09T02:25:05.816Z,11.61
2024-05-09T02:27:38.644Z,11.63
2024-05-09T02:30:19.083Z,11.69
2024-05-09T02:32:59.152Z,11.77
2024-05-09T02:35:32.267Z,11.95
2024-05-09T02:38:05.810Z,12.47
2024-05-09T02:40:39.906Z,13.43
2024-05-09T02:43:14.668Z,14.45
2024-05-09T02:45:47.682Z,15.44
2024-05-09T02:48:20.699Z,16.40
2024-05-09T02:50:53.858Z,17.32
2024-05-09T02:53:26.833Z,18.22
2024-05-09T02:55:59.654Z,19.11
2024-05-09T02:58:32.319Z,19.95
2024-05-09T03:01:05.439Z,20.73
2024-05-09T03:03:38.254Z,21.51
2024-05-09T03:06:11.040Z,22.32
2024-05-09T03:08:47.129Z,23.14
2024-05-09T03:11:26.885Z,23.91
2024-05-09T03:14:00.268Z,24.56
2024-05-09T03:16:33.637Z,25.12
2024-05-09T03:19:06.824Z,25.77
2024-05-09T03:21:42.576Z,26.41
2024-05-09T03:24:15.583Z,27.05
2024-05-09T03:26:48.751Z,27.66
2024-05-09T03:29:22.445Z,28.23
2024-05-09T03:31:55.730Z,28.78
2024-05-09T03:34:28.484Z,29.40
2024-05-09T03:37:01.386Z,30.00
2024-05-09T03:39:34.401Z,30.54
2024-05-09T03:42:08.424Z,31.09
2024-05-09T03:44:41.797Z,31.67
2024-05-09T03:47:14.493Z,32.21
2024-05-09T03:49:48.006Z,32.66
2024-05-09T03:52:21.005Z,33.12
2024-05-09T03:54:54.323Z,33.67
2024-05-09T03:57:26.931Z,34.11
2024-05-09T03:59:59.799Z,34.47
2024-05-09T04:02:32.772Z,34.66
2024-05-09T04:05:06.656Z,34.98
2024-05-09T04:07:40.661Z,35.38
2024-05-09T04:10:21.149Z,35.75
2024-05-09T04:13:01.303Z,36.24
2024-05-09T04:15:34.761Z,36.71
2024-05-09T04:18:08.760Z,37.11
2024-05-09T04:20:42.065Z,37.58
2024-05-09T04:23:15.714Z,38.06
2024-05-09T04:25:49.194Z,38.48
2024-05-09T04:28:24.194Z,38.88
2024-05-09T04:30:55.119Z,39.30
2024-05-09T04:33:28.294Z,39.63
2024-05-09T04:36:01.267Z,40.04
2024-05-09T04:38:34.319Z,40.51
2024-05-09T04:41:08.488Z,40.90
2024-05-09T04:43:41.682Z,41.07
2024-05-09T04:46:14.400Z,41.18
2024-05-09T04:48:47.446Z,41.54
2024-05-09T04:51:20.135Z,41.85
2024-05-09T04:53:53.175Z,42.12
2024-05-09T04:56:26.029Z,42.45
2024-05-09T04:58:59.066Z,42.94
2024-05-09T05:01:31.947Z,43.10
2024-05-09T05:04:05.509Z,43.27
2024-05-09T05:06:38.640Z,43.61
2024-05-09T05:09:11.656Z,44.05
2024-05-09T05:11:44.533Z,44.43
2024-05-09T05:14:17.314Z,44.88
2024-05-09T05:16:50.276Z,45.35
2024-05-09T05:19:23.113Z,45.81
2024-05-09T05:21:56.279Z,46.26
2024-05-09T05:24:29.397Z,46.62
2024-05-09T05:27:02.012Z,46.94
2024-05-09T05:29:35.203Z,47.21
2024-05-09T05:32:09.992Z,47.43
2024-05-09T05:34:42.785Z,47.53
2024-05-09T05:37:15.411Z,47.68
2024-05-09T05:39:48.811Z,47.84
2024-05-09T05:42:21.376Z,47.92
2024-05-09T05:44:53.940Z,48.05
2024-05-09T05:47:26.685Z,48.10
2024-05-09T05:49:59.715Z,48.10
2024-05-09T05:52:32.649Z,48.16
2024-05-09T05:55:05.547Z,48.03
2024-05-09T05:57:38.247Z,47.81
2024-05-09T06:00:21.389Z,47.54
2024-05-09T06:02:58.781Z,47.45
2024-05-09T06:05:31.693Z,47.49
2024-05-09T06:08:04.466Z,47.70
2024-05-09T06:10:39.902Z,47.88
2024-05-09T06:13:14.688Z,47.88
2024-05-09T06:15:45.585Z,47.94
2024-05-09T06:18:18.657Z,47.89
2024-05-09T06:20:52.749Z,47.99
2024-05-09T06:23:26.080Z,48.19
2024-05-09T06:25:58.707Z,48.41
2024-05-09T06:28:31.301Z,48.35
2024-05-09T06:31:05.253Z,48.04
2024-05-09T06:33:38.954Z,47.76
2024-05-09T06:36:12.022Z,47.61
2024-05-09T06:38:44.748Z,47.13
2024-05-09T06:41:17.596Z,46.33
2024-05-09T06:43:50.362Z,46.21
2024-05-09T06:46:23.015Z,46.11
2024-05-09T06:48:55.889Z,45.84
2024-05-09T06:51:29.133Z,45.72
2024-05-09T06:54:01.711Z,45.60
2024-05-09T06:56:34.751Z,45.67
2024-05-09T06:59:07.496Z,45.81
2024-05-09T07:01:40.643Z,45.75
2024-05-09T07:04:13.709Z,45.55
2024-05-09T07:06:46.463Z,44.85
2024-05-09T07:09:19.535Z,43.13
2024-05-09T07:11:52.580Z,41.16
2024-05-09T07:14:25.308Z,39.46
2024-05-09T07:16:58.009Z,37.78
2024-05-09T07:19:30.877Z,36.26
2024-05-09T07:22:03.604Z,35.01
2024-05-09T07:24:37.792Z,34.06
2024-05-09T07:27:10.781Z,33.08
2024-05-09T07:29:44.680Z,32.19
2024-05-09T07:32:17.484Z,31.58
2024-05-09T07:34:50.439Z,31.14
2024-05-09T07:37:22.968Z,30.77
2024-05-09T07:39:55.543Z,30.39
2024-05-09T07:42:28.050Z,30.07
2024-05-09T07:45:20.602Z,29.83
2024-05-09T07:49:43.644Z,29.54
2024-05-09T07:53:38.898Z,28.92
2024-05-09T07:56:14.269Z,28.43
2024-05-09T07:58:47.439Z,27.96
2024-05-09T08:01:21.286Z,27.80
2024-05-09T08:03:54.413Z,27.71
2024-05-09T08:06:27.663Z,27.41
2024-05-09T08:09:05.263Z,27.17
2024-05-09T08:11:40.944Z,27.17
2024-05-09T08:14:13.379Z,26.95
2024-05-09T08:16:46.574Z,26.64
2024-05-09T08:19:19.167Z,26.06
2024-05-09T08:21:52.066Z,25.38
2024-05-09T08:24:24.592Z,25.00
2024-05-09T08:26:57.336Z,24.87
2024-05-09T08:29:30.913Z,24.85
2024-05-09T08:32:03.386Z,24.89
2024-05-09T08:34:36.123Z,24.90
2024-05-09T08:37:13.252Z,24.84
2024-05-09T08:39:52.401Z,24.58
2024-05-09T08:42:26.354Z,24.44
2024-05-09T08:44:59.484Z,24.44
2024-05-09T08:47:34.421Z,24.47
2024-05-09T08:50:16.573Z,24.46
2024-05-09T08:52:57.475Z,24.37
2024-05-09T08:55:30.056Z,24.39
2024-05-09T08:58:04.096Z,24.38
2024-05-09T09:00:37.844Z,24.34
2024-05-09T09:03:13.348Z,24.33
2024-05-09T09:05:50.657Z,24.34
2024-05-09T09:08:23.435Z,24.38
2024-05-09T09:10:57.652Z,24.38
2024-05-09T09:13:30.817Z,24.34
2024-05-09T09:16:03.759Z,24.18
2024-05-09T09:18:36.942Z,24.03
2024-05-09T09:21:13.028Z,23.89
2024-05-09T09:23:46.405Z,23.84
2024-05-09T09:26:22.487Z,23.81
2024-05-09T09:28:55.150Z,23.85
2024-05-09T09:31:28.099Z,23.91
2024-05-09T09:34:06.350Z,23.98
2024-05-09T09:36:39.309Z,23.96
2024-05-09T09:39:12.536Z,23.95
2024-05-09T09:41:47.494Z,23.95
2024-05-09T09:44:20.133Z,23.86
2024-05-09T09:46:53.196Z,23.81
2024-05-09T09:49:26.330Z,23.74
2024-05-09T09:51:59.190Z,23.69
2024-05-09T09:54:32.481Z,23.69
2024-05-09T09:57:06.840Z,23.72
2024-05-09T09:59:39.951Z,23.69
2024-05-09T10:02:15.302Z,23.56
2024-05-09T10:04:48.348Z,23.46
2024-05-09T10:07:22.708Z,23.33
2024-05-09T10:09:59.296Z,23.26
2024-05-09T10:12:31.983Z,23.26
2024-05-09T10:15:10.312Z,23.28
2024-05-09T10:17:52.582Z,23.29
2024-05-09T10:20:30.812Z,23.30
2024-05-09T10:23:05.506Z,23.32
2024-05-09T10:25:38.042Z,23.35
2024-05-09T10:28:13.940Z,23.38
2024-05-09T10:30:48.934Z,23.36
2024-05-09T10:33:22.576Z,23.37
2024-05-09T10:35:56.047Z,23.40
2024-05-09T10:38:29.256Z,23.44
2024-05-09T10:41:03.091Z,23.49
2024-05-09T10:43:37.491Z,23.52
2024-05-09T10:46:11.184Z,23.48
2024-05-09T10:48:45.956Z,23.48
2024-05-09T10:51:20.189Z,23.49
2024-05-09T10:53:52.730Z,23.55
2024-05-09T10:56:25.400Z,23.59
2024-05-09T10:58:57.958Z,23.66
2024-05-09T11:01:30.581Z,23.70
2024-05-09T11:04:04.399Z,23.72
2024-05-09T11:06:38.586Z,23.73
2024-05-09T11:09:11.285Z,23.74
2024-05-09T11:11:44.488Z,23.72
2024-05-09T11:14:17.434Z,23.77
2024-05-09T11:16:50.106Z,23.84
2024-05-09T11:19:22.742Z,23.86
2024-05-09T11:21:55.686Z,23.89
2024-05-09T11:24:28.375Z,23.90
2024-05-09T11:27:01.950Z,23.87
2024-05-09T11:29:44.903Z,23.87
2024-05-09T11:32:18.237Z,23.86
2024-05-09T11:34:51.074Z,23.89
2024-05-09T11:37:24.087Z,23.93
2024-05-09T11:39:56.744Z,23.94
2024-05-09T11:42:29.405Z,23.96
2024-05-09T11:45:01.808Z,24.01
2024-05-09T11:47:34.836Z,24.02
2024-05-09T11:50:12.914Z,24.02
2024-05-09T11:52:48.763Z,23.96
2024-05-09T11:55:26.771Z,23.93
2024-05-09T11:58:00.618Z,23.92
2024-05-09T12:00:37.149Z,23.93
2024-05-09T12:03:10.758Z,23.93
2024-05-09T12:05:43.656Z,23.93
2024-05-09T12:08:16.594Z,23.94
2024-05-09T12:10:49.928Z,23.97
2024-05-09T12:13:23.054Z,24.02
2024-05-09T12:15:57.020Z,24.08
2024-05-09T12:18:29.693Z,24.07
2024-05-09T12:21:02.487Z,24.05
2024-05-09T12:23:35.204Z,24.05
2024-05-09T12:26:08.145Z,24.08
2024-05-09T12:28:40.820Z,24.15
2024-05-09T12:31:13.601Z,24.22
2024-05-09T12:33:47.271Z,24.25
2024-05-09T12:36:20.073Z,24.25
2024-05-09T12:38:52.607Z,24.22
2024-05-09T12:41:25.241Z,24.15
2024-05-09T12:43:57.863Z,24.07
2024-05-09T12:46:32.015Z,24.08
2024-05-09T12:49:04.981Z,24.18
2024-05-09T12:51:38.397Z,24.31
2024-05-09T12:54:11.174Z,24.45
2024-05-09T12:56:43.934Z,24.61
2024-05-09T12:59:16.855Z,24.71
2024-05-09T13:01:49.456Z,24.72
2024-05-09T13:04:22.231Z,24.71
2024-05-09T13:06:55.034Z,24.68
2024-05-09T13:09:27.931Z,24.62
2024-05-09T13:12:00.886Z,24.64
2024-05-09T13:14:33.616Z,24.69
2024-05-09T13:17:06.488Z,24.75
2024-05-09T13:19:39.003Z,24.72
2024-05-09T13:22:11.576Z,24.82
2024-05-09T13:24:44.700Z,24.99
2024-05-09T13:27:17.377Z,25.17
2024-05-09T13:29:50.465Z,25.29
2024-05-09T13:32:23.307Z,25.38
2024-05-09T13:34:56.252Z,25.42
2024-05-09T13:37:29.185Z,25.48
2024-05-09T13:40:02.264Z,25.48
2024-05-09T13:42:34.950Z,25.49
2024-05-09T13:45:08.755Z,25.56
2024-05-09T13:47:41.831Z,25.59
2024-05-09T13:50:23.633Z,25.60
2024-05-09T13:53:05.798Z,25.59
2024-05-09T13:55:40.894Z,25.47
2024-05-09T13:58:13.850Z,25.34
2024-05-09T14:00:49.015Z,25.05
2024-05-09T14:03:22.568Z,24.71
2024-05-09T14:05:55.983Z,24.46
2024-05-09T14:08:29.011Z,24.21
2024-05-09T14:11:01.912Z,23.98
2024-05-09T14:13:34.700Z,23.76
2024-05-09T14:16:09.312Z,23.55
2024-05-09T14:18:42.121Z,23.37
2024-05-09T14:21:14.758Z,23.30
2024-05-09T14:23:47.241Z,23.35
2024-05-09T14:26:20.077Z,23.34
2024-05-09T14:28:53.057Z,23.31
2024-05-09T14:31:25.811Z,23.23
2024-05-09T14:33:58.498Z,23.13
2024-05-09T14:36:33.287Z,23.06
2024-05-09T14:39:06.059Z,23.02
2024-05-09T14:41:39.125Z,22.99
2024-05-09T14:44:12.750Z,23.00
2024-05-09T14:46:45.772Z,23.14
2024-05-09T14:49:18.603Z,23.24
2024-05-09T14:51:51.657Z,23.18
2024-05-09T14:54:24.275Z,23.14
2024-05-09T14:56:58.170Z,23.07
2024-05-09T14:59:30.981Z,22.95
2024-05-09T15:02:03.635Z,22.84
2024-05-09T15:04:36.500Z,22.72
2024-05-09T15:07:11.587Z,22.62
2024-05-09T15:09:44.381Z,22.51
2024-05-09T15:12:17.295Z,22.42
2024-05-09T15:14:49.942Z,22.32
2024-05-09T15:17:22.677Z,22.19
2024-05-09T15:19:55.477Z,22.11
2024-05-09T15:22:28.094Z,22.04
2024-05-09T15:25:00.875Z,21.95
2024-05-09T15:27:33.404Z,21.87
2024-05-09T15:30:10.341Z,21.82
2024-05-09T15:32:43.329Z,21.73
2024-05-09T15:35:16.228Z,21.66
2024-05-09T15:37:49.078Z,21.59
2024-05-09T15:40:30.925Z,21.54
2024-05-09T15:43:11.634Z,21.47
2024-05-09T15:45:44.613Z,21.41
2024-05-09T15:48:17.219Z,21.34
2024-05-09T15:50:50.326Z,21.27
2024-05-09T15:53:23.037Z,21.22
2024-05-09T15:55:55.602Z,21.16
2024-05-09T15:58:28.275Z,21.10
2024-05-09T16:01:01.185Z,21.05
2024-05-09T16:03:34.257Z,20.99
2024-05-09T16:06:07.439Z,20.93
2024-05-09T16:08:40.338Z,20.86
2024-05-09T16:11:16.803Z,20.81
2024-05-09T16:13:48.161Z,20.73
2024-05-09T16:16:21.088Z,20.66
2024-05-09T16:18:53.746Z,20.61
2024-05-09T16:21:26.350Z,20.57
2024-05-09T16:24:00.052Z,20.54
2024-05-09T16:26:32.753Z,20.51
2024-05-09T16:29:05.438Z,20.46
2024-05-09T16:31:38.287Z,20.43
2024-05-09T16:34:10.925Z,20.39
2024-05-09T16:36:44.256Z,20.36
2024-05-09T16:39:18.489Z,20.33
2024-05-09T16:41:51.705Z,20.30
2024-05-09T16:44:24.213Z,20.28
2024-05-09T16:46:56.807Z,20.24
2024-05-09T16:49:30.136Z,20.21
2024-05-09T16:52:03.162Z,20.18
2024-05-09T16:54:35.887Z,20.13
2024-05-09T16:57:09.374Z,20.10
2024-05-09T16:59:42.015Z,20.07
2024-05-09T17:02:14.926Z,20.03
2024-05-09T17:04:47.729Z,20.00
2024-05-09T17:07:22.646Z,19.98
2024-05-09T17:09:55.621Z,19.96
2024-05-09T17:12:28.602Z,19.94
2024-05-09T17:15:01.409Z,19.92
2024-05-09T17:17:34.593Z,19.90
2024-05-09T17:20:15.584Z,19.88
2024-05-09T17:22:56.058Z,19.86
2024-05-09T17:25:29.130Z,19.83
2024-05-09T17:28:07.899Z,19.82
2024-05-09T17:30:42.760Z,19.80
2024-05-09T17:33:16.447Z,19.79
2024-05-09T17:35:51.391Z,19.77
2024-05-09T17:38:24.268Z,19.74
2024-05-09T17:40:57.956Z,19.72
2024-05-09T17:43:30.948Z,19.71
2024-05-09T17:46:03.805Z,19.70
2024-05-09T17:48:36.828Z,19.69
2024-05-09T17:51:10.058Z,19.69
2024-05-09T17:53:42.566Z,19.68
2024-05-09T17:56:15.274Z,19.68
2024-05-09T17:58:49.053Z,19.67
2024-05-09T18:01:22.090Z,19.67
2024-05-09T18:03:55.193Z,19.67
2024-05-09T18:06:28.171Z,19.67
2024-05-09T18:09:00.718Z,19.67
2024-05-09T18:11:36.102Z,19.68
2024-05-09T18:14:09.192Z,19.67
2024-05-09T18:16:42.287Z,19.66
2024-05-09T18:19:15.396Z,19.63
2024-05-09T18:21:48.066Z,19.59
2024-05-09T18:24:22.293Z,19.53
2024-05-09T18:26:55.023Z,19.46
2024-05-09T18:29:27.558Z,19.40
2024-05-09T18:32:00.183Z,19.33
2024-05-09T18:34:33.033Z,19.28
2024-05-09T18:37:06.358Z,19.23
2024-05-09T18:39:38.869Z,19.17
2024-05-09T18:42:11.503Z,19.12
2024-05-09T18:44:44.028Z,19.07
2024-05-09T18:47:19.881Z,19.01
2024-05-09T18:49:53.031Z,18.95
2024-05-09T18:52:25.969Z,18.91
2024-05-09T18:54:58.649Z,18.87
2024-05-09T18:57:31.684Z,18.82
2024-05-09T19:00:05.760Z,18.79
2024-05-09T19:02:38.914Z,18.74
2024-05-09T19:05:12.008Z,18.68
2024-05-09T19:07:44.991Z,18.62
2024-05-09T19:10:22.714Z,18.57
2024-05-09T19:12:58.783Z,18.52
2024-05-09T19:15:31.358Z,18.48
2024-05-09T19:18:04.077Z,18.44
2024-05-09T19:20:37.664Z,18.40
2024-05-09T19:23:11.846Z,18.35
2024-05-09T19:25:44.744Z,18.31
2024-05-09T19:28:17.544Z,18.26
2024-05-09T19:30:50.373Z,18.22
2024-05-09T19:33:23.254Z,18.18
2024-05-09T19:35:55.797Z,18.16
2024-05-09T19:38:28.361Z,18.15
2024-05-09T19:41:01.916Z,18.15
2024-05-09T19:43:35.967Z,18.13
2024-05-09T19:46:09.137Z,18.11
2024-05-09T19:48:41.832Z,18.09
2024-05-09T19:51:14.587Z,18.08
2024-05-09T19:53:47.254Z,18.05
2024-05-09T19:56:19.896Z,18.04
2024-05-09T19:58:52.597Z,18.02
2024-05-09T20:01:25.236Z,18.01
2024-05-09T20:03:59.361Z,18.01
2024-05-09T20:06:32.228Z,18.00
2024-05-09T20:09:04.943Z,17.99
2024-05-09T20:11:38.969Z,17.97
2024-05-09T20:14:11.616Z,17.94
2024-05-09T20:16:44.532Z,17.91
2024-05-09T20:19:17.236Z,17.89
2024-05-09T20:21:50.285Z,17.86
2024-05-09T20:24:22.804Z,17.84
2024-05-09T20:26:55.356Z,17.82
2024-05-09T20:29:27.924Z,17.80
2024-05-09T20:32:00.644Z,17.78
2024-05-09T20:34:33.308Z,17.77
2024-05-09T20:37:06.129Z,17.74
2024-05-09T20:39:38.937Z,17.70
2024-05-09T20:42:11.606Z,17.67
2024-05-09T20:44:45.295Z,17.64
2024-05-09T20:47:18.756Z,17.61
2024-05-09T20:49:51.675Z,17.58
2024-05-09T20:52:24.415Z,17.54
2024-05-09T20:54:56.951Z,17.50
2024-05-09T20:57:29.764Z,17.48
2024-05-09T21:00:02.556Z,17.46
2024-05-09T21:02:38.586Z,17.46
2024-05-09T21:05:12.452Z,17.47
2024-05-09T21:07:45.147Z,17.48
2024-05-09T21:10:22.415Z,17.49
2024-05-09T21:12:55.767Z,17.50
2024-05-09T21:15:28.326Z,17.50
2024-05-09T21:18:00.900Z,17.50
2024-05-09T21:20:35.308Z,17.49
2024-05-09T21:23:08.364Z,17.49
2024-05-09T21:25:41.108Z,17.49
2024-05-09T21:28:16.838Z,17.49
2024-05-09T21:30:49.484Z,17.48
2024-05-09T21:33:22.206Z,17.49
2024-05-09T21:35:55.739Z,17.51
2024-05-09T21:38:30.795Z,17.53
2024-05-09T21:41:03.661Z,17.55
2024-05-09T21:43:39.051Z,17.57
2024-05-09T21:46:11.695Z,17.59
2024-05-09T21:48:44.400Z,17.61
2024-05-09T21:51:20.018Z,17.62
2024-05-09T21:53:52.624Z,17.62
2024-05-09T21:56:25.108Z,17.62
2024-05-09T21:58:57.651Z,17.62
2024-05-09T22:01:30.618Z,17.60
2024-05-09T22:04:03.408Z,17.58
2024-05-09T22:06:36.139Z,17.56
2024-05-09T22:09:08.691Z,17.53
2024-05-09T22:11:41.271Z,17.51
2024-05-09T22:14:13.948Z,17.48
2024-05-09T22:16:47.107Z,17.47
2024-05-09T22:19:20.077Z,17.47
2024-05-09T22:21:52.847Z,17.47
2024-05-09T22:24:25.524Z,17.47
2024-05-09T22:26:58.137Z,17.48
2024-05-09T22:29:30.959Z,17.47
2024-05-09T22:32:03.841Z,17.46
2024-05-09T22:34:36.572Z,17.44
2024-05-09T22:37:09.686Z,17.42
2024-05-09T22:39:42.748Z,17.39
2024-05-09T22:42:15.321Z,17.36
2024-05-09T22:44:49.040Z,17.34
2024-05-09T22:47:22.066Z,17.32
2024-05-09T22:49:54.739Z,17.32
2024-05-09T22:52:27.182Z,17.31
2024-05-09T22:54:59.762Z,17.31
2024-05-09T22:57:32.423Z,17.29
2024-05-09T23:00:07.919Z,17.28
2024-05-09T23:02:42.580Z,17.27
2024-05-09T23:05:15.791Z,17.27
2024-05-09T23:07:48.500Z,17.27
2024-05-09T23:10:28.034Z,17.26
2024-05-09T23:13:08.379Z,17.25
2024-05-09T23:15:41.433Z,17.24
2024-05-09T23:18:14.094Z,17.23
2024-05-09T23:20:46.700Z,17.22
2024-05-09T23:23:20.596Z,17.21
2024-05-09T23:25:54.037Z,17.20
2024-05-09T23:28:26.834Z,17.20
2024-05-09T23:30:59.720Z,17.19
2024-05-09T23:33:32.584Z,17.18
2024-05-09T23:36:05.572Z,17.18
2024-05-09T23:38:38.150Z,17.15
2024-05-09T23:41:10.717Z,17.12
2024-05-09T23:43:43.531Z,17.10
2024-05-09T23:46:16.109Z,17.07
2024-05-09T23:48:48.915Z,17.05
2024-05-09T23:51:21.636Z,17.02
2024-05-09T23:53:54.484Z,16.98
2024-05-09T23:56:27.097Z,16.97
2024-05-09T23:58:59.849Z,16.96
